createdAt,value
2023-04-27T00:00:57.343Z,4.80
2023-04-27T00:03:19.028Z,4.27
2023-04-27T00:05:40.752Z,5.20
2023-04-27T00:08:02.913Z,4.77
2023-04-27T00:10:24.370Z,4.20
2023-04-27T00:12:46.054Z,3.80
2023-04-27T00:15:08.508Z,3.70
2023-04-27T00:17:30.004Z,3.90
2023-04-27T00:19:52.242Z,3.33
2023-04-27T00:22:14.065Z,3.93
2023-04-27T00:24:35.649Z,3.53
2023-04-27T00:26:57.817Z,3.83
2023-04-27T00:29:19.343Z,3.53
2023-04-27T00:31:40.973Z,3.80
2023-04-27T00:34:02.550Z,4.10
2023-04-27T00:36:24.035Z,3.30
2023-04-27T00:38:45.484Z,3.83
2023-04-27T00:41:07.925Z,3.93
2023-04-27T00:43:29.673Z,4.80
2023-04-27T00:45:51.333Z,4.63
2023-04-27T00:48:13.442Z,4.43
2023-04-27T00:50:35.248Z,4.23
2023-04-27T00:52:57.000Z,3.80
2023-04-27T00:55:19.503Z,4.40
2023-04-27T00:57:40.952Z,4.57
2023-04-27T01:00:06.628Z,4.30
2023-04-27T01:02:29.702Z,4.20
2023-04-27T01:04:52.100Z,3.63
2023-04-27T01:07:13.568Z,3.50
2023-04-27T01:09:35.018Z,3.60
2023-04-27T01:11:58.241Z,3.40
2023-04-27T01:14:19.700Z,3.60
2023-04-27T01:16:41.232Z,3.90
2023-04-27T01:19:03.732Z,4.03
2023-04-27T01:21:26.321Z,4.00
2023-04-27T01:23:47.800Z,3.20
2023-04-27T01:26:11.920Z,3.73
2023-04-27T01:28:33.388Z,3.50
2023-04-27T01:30:54.879Z,3.83
2023-04-27T01:33:17.430Z,4.00
2023-04-27T01:35:39.013Z,3.77
2023-04-27T01:38:00.619Z,3.70
2023-04-27T01:40:22.052Z,3.90
2023-04-27T01:42:43.513Z,3.57
2023-04-27T01:45:05.721Z,3.57
2023-04-27T01:47:27.823Z,3.60
2023-04-27T01:49:49.396Z,3.60
2023-04-27T01:52:10.842Z,3.60
2023-04-27T01:54:32.283Z,3.40
2023-04-27T01:56:53.726Z,3.50
2023-04-27T01:59:15.421Z,3.30
2023-04-27T02:01:37.112Z,3.30
2023-04-27T02:03:58.711Z,3.67
2023-04-27T02:06:20.427Z,3.40
2023-04-27T02:08:41.937Z,3.60
2023-04-27T02:11:03.547Z,3.33
2023-04-27T02:13:24.997Z,3.53
2023-04-27T02:15:46.604Z,3.47
2023-04-27T02:18:08.106Z,3.53
2023-04-27T02:20:33.504Z,3.70
2023-04-27T02:22:54.929Z,3.80
2023-04-27T02:25:16.619Z,3.77
2023-04-27T02:27:38.988Z,3.60
2023-04-27T02:30:05.310Z,3.80
2023-04-27T02:32:27.310Z,3.87
2023-04-27T02:34:48.783Z,3.77
2023-04-27T02:37:10.469Z,4.10
2023-04-27T02:39:31.910Z,4.00
2023-04-27T02:41:53.353Z,3.60
2023-04-27T02:44:14.762Z,3.60
2023-04-27T02:46:36.268Z,3.60
2023-04-27T02:48:57.750Z,3.53
2023-04-27T02:51:19.196Z,3.80
2023-04-27T02:53:41.049Z,5.97
2023-04-27T02:56:03.025Z,7.20
2023-04-27T02:58:24.597Z,7.93
2023-04-27T03:00:47.167Z,9.70
2023-04-27T03:03:13.011Z,9.47
2023-04-27T03:05:34.648Z,6.67
2023-04-27T03:07:56.230Z,6.43
2023-04-27T03:10:17.708Z,6.03
2023-04-27T03:12:39.389Z,6.37
2023-04-27T03:15:01.167Z,4.70
2023-04-27T03:17:22.680Z,4.90
2023-04-27T03:19:44.130Z,4.47
2023-04-27T03:22:05.692Z,4.17
2023-04-27T03:24:27.746Z,5.50
2023-04-27T03:26:49.188Z,6.77
2023-04-27T03:29:10.739Z,7.33
2023-04-27T03:31:32.230Z,8.90
2023-04-27T03:33:53.722Z,6.93
2023-04-27T03:36:15.498Z,5.73
2023-04-27T03:38:37.235Z,5.10
2023-04-27T03:40:58.968Z,5.30
2023-04-27T03:43:21.565Z,5.40
2023-04-27T03:45:43.067Z,4.87
2023-04-27T03:48:04.991Z,4.27
2023-04-27T03:50:27.924Z,4.67
2023-04-27T03:52:50.990Z,4.93
2023-04-27T03:55:12.644Z,4.43
2023-04-27T03:57:34.119Z,4.40
2023-04-27T03:59:55.658Z,4.57
2023-04-27T04:02:17.296Z,4.57
2023-04-27T04:04:39.096Z,4.63
2023-04-27T04:07:00.703Z,4.53
2023-04-27T04:09:23.841Z,3.97
2023-04-27T04:11:45.626Z,4.13
2023-04-27T04:14:07.070Z,4.33
2023-04-27T04:16:28.564Z,5.40
2023-04-27T04:18:50.042Z,6.10
2023-04-27T04:21:11.618Z,5.67
2023-04-27T04:23:33.977Z,4.70
2023-04-27T04:25:58.870Z,4.97
2023-04-27T04:28:20.382Z,5.00
2023-04-27T04:30:43.218Z,4.53
2023-04-27T04:33:04.754Z,4.43
2023-04-27T04:35:26.273Z,4.00
2023-04-27T04:37:47.694Z,4.03
2023-04-27T04:40:10.080Z,4.70
2023-04-27T04:42:33.234Z,4.23
2023-04-27T04:44:54.746Z,4.00
2023-04-27T04:47:17.754Z,4.43
2023-04-27T04:49:39.614Z,4.37
2023-04-27T04:52:01.169Z,3.80
2023-04-27T04:54:22.608Z,4.37
2023-04-27T04:56:44.086Z,4.20
2023-04-27T04:59:05.666Z,4.50
2023-04-27T05:01:27.328Z,9.27
2023-04-27T05:03:48.948Z,13.53
2023-04-27T05:06:10.567Z,4.47
2023-04-27T05:08:32.006Z,4.23
2023-04-27T05:10:54.344Z,4.53
2023-04-27T05:13:16.030Z,4.50
2023-04-27T05:15:37.602Z,4.23
2023-04-27T05:17:59.127Z,4.27
2023-04-27T05:20:20.801Z,4.03
2023-04-27T05:22:42.249Z,3.80
2023-04-27T05:25:04.605Z,4.17
2023-04-27T05:27:26.276Z,4.63
2023-04-27T05:29:47.753Z,4.90
2023-04-27T05:32:09.726Z,5.23
2023-04-27T05:34:31.232Z,5.17
2023-04-27T05:36:52.665Z,5.10
2023-04-27T05:39:14.534Z,5.17
2023-04-27T05:41:36.360Z,4.87
2023-04-27T05:43:57.778Z,4.60
2023-04-27T05:46:19.314Z,4.70
2023-04-27T05:48:41.257Z,4.90
2023-04-27T05:51:03.512Z,5.07
2023-04-27T05:53:25.000Z,4.60
2023-04-27T05:55:46.511Z,4.60
2023-04-27T05:58:09.189Z,4.20
2023-04-27T06:00:31.789Z,5.93
2023-04-27T06:02:53.353Z,5.03
2023-04-27T06:05:15.197Z,4.80
2023-04-27T06:07:37.864Z,4.70
2023-04-27T06:09:59.337Z,5.00
2023-04-27T06:12:20.784Z,5.27
2023-04-27T06:14:42.261Z,5.47
2023-04-27T06:17:04.372Z,6.63
2023-04-27T06:19:26.884Z,8.23
2023-04-27T06:21:48.341Z,5.37
2023-04-27T06:24:09.801Z,4.20
2023-04-27T06:26:31.497Z,4.10
2023-04-27T06:28:52.922Z,3.97
2023-04-27T06:31:14.391Z,4.03
2023-04-27T06:33:35.811Z,4.10
2023-04-27T06:35:57.276Z,3.83
2023-04-27T06:38:18.733Z,3.20
2023-04-27T06:40:40.429Z,3.60
2023-04-27T06:43:01.860Z,3.30
2023-04-27T06:45:23.359Z,4.13
2023-04-27T06:47:45.161Z,4.30
2023-04-27T06:50:07.162Z,3.60
2023-04-27T06:52:28.570Z,4.33
2023-04-27T06:54:50.092Z,3.93
2023-04-27T06:57:11.575Z,3.57
2023-04-27T06:59:33.102Z,3.60
2023-04-27T07:01:54.662Z,3.67
2023-04-27T07:04:16.255Z,3.17
2023-04-27T07:06:37.680Z,2.63
2023-04-27T07:08:59.745Z,3.10
2023-04-27T07:11:21.533Z,3.13
2023-04-27T07:13:43.382Z,2.83
2023-04-27T07:16:05.268Z,3.43
2023-04-27T07:18:28.276Z,3.40
2023-04-27T07:20:49.818Z,3.60
2023-04-27T07:23:11.388Z,3.57
2023-04-27T07:25:33.163Z,3.67
2023-04-27T07:27:55.064Z,3.20
2023-04-27T07:30:17.886Z,3.40
2023-04-27T07:32:41.567Z,3.63
2023-04-27T07:35:03.708Z,3.43
2023-04-27T07:37:25.171Z,3.20
2023-04-27T07:39:46.802Z,3.23
2023-04-27T07:42:08.690Z,3.57
2023-04-27T07:44:31.451Z,3.73
2023-04-27T07:46:54.782Z,3.43
2023-04-27T07:49:16.558Z,3.37
2023-04-27T07:51:38.142Z,3.40
2023-04-27T07:53:59.598Z,3.70
2023-04-27T07:56:21.542Z,3.87
2023-04-27T07:58:43.379Z,4.00
2023-04-27T08:01:04.843Z,4.57
2023-04-27T08:03:27.224Z,3.43
2023-04-27T08:05:49.129Z,3.63
2023-04-27T08:08:11.330Z,3.33
2023-04-27T08:10:32.870Z,3.87
2023-04-27T08:12:54.373Z,3.90
2023-04-27T08:15:15.895Z,3.57
2023-04-27T08:17:39.001Z,3.60
2023-04-27T08:20:00.556Z,3.90
2023-04-27T08:22:22.011Z,3.37
2023-04-27T08:24:43.492Z,3.57
2023-04-27T08:27:06.605Z,3.67
2023-04-27T08:29:29.047Z,3.53
2023-04-27T08:31:51.209Z,3.20
2023-04-27T08:34:12.813Z,3.27
2023-04-27T08:36:34.401Z,3.17
2023-04-27T08:38:56.011Z,3.77
2023-04-27T08:41:22.463Z,3.70
2023-04-27T08:43:45.052Z,3.60
2023-04-27T08:46:06.591Z,4.57
2023-04-27T08:48:28.726Z,3.37
2023-04-27T08:50:51.720Z,3.43
2023-04-27T08:53:23.206Z,3.70
2023-04-27T08:55:44.681Z,3.60
2023-04-27T08:58:06.253Z,3.67
2023-04-27T09:00:44.141Z,3.97
2023-04-27T09:03:05.852Z,4.00
2023-04-27T09:05:27.675Z,3.70
2023-04-27T09:07:59.863Z,4.00
2023-04-27T09:10:23.195Z,3.17
2023-04-27T09:12:55.051Z,3.50
2023-04-27T09:15:16.630Z,3.37
2023-04-27T09:17:38.958Z,3.27
2023-04-27T09:20:13.637Z,3.20
2023-04-27T09:22:48.943Z,3.60
2023-04-27T09:25:10.903Z,3.07
2023-04-27T09:27:32.370Z,3.67
2023-04-27T09:29:53.795Z,3.67
2023-04-27T09:32:17.358Z,3.10
2023-04-27T09:34:41.082Z,3.72
2023-04-27T09:37:02.726Z,3.63
2023-04-27T09:39:24.396Z,3.30
2023-04-27T09:41:46.772Z,3.67
2023-04-27T09:44:08.474Z,3.47
2023-04-27T09:46:33.482Z,3.50
2023-04-27T09:48:56.449Z,3.72
2023-04-27T09:51:17.930Z,3.70
2023-04-27T09:53:46.653Z,4.13
2023-04-27T09:56:25.911Z,4.00
2023-04-27T09:58:59.822Z,3.70
2023-04-27T10:01:46.360Z,4.22
2023-04-27T10:04:35.983Z,4.07
2023-04-27T10:07:02.581Z,4.32
2023-04-27T10:09:24.742Z,3.42
2023-04-27T10:11:47.884Z,3.42
2023-04-27T10:14:11.262Z,3.47
2023-04-27T10:16:47.139Z,3.70
2023-04-27T10:19:09.738Z,4.10
2023-04-27T10:21:32.916Z,3.95
2023-04-27T10:23:54.483Z,4.05
2023-04-27T10:26:26.590Z,3.58
2023-04-27T10:29:04.497Z,4.97
2023-04-27T10:31:29.502Z,4.60
2023-04-27T10:33:51.306Z,4.70
2023-04-27T10:36:16.113Z,4.80
2023-04-27T10:38:40.627Z,4.40
2023-04-27T10:41:03.465Z,4.43
2023-04-27T10:43:27.209Z,4.50
2023-04-27T10:45:48.899Z,4.72
2023-04-27T10:48:14.379Z,4.32
2023-04-27T10:50:35.913Z,5.10
2023-04-27T10:53:16.788Z,5.15
2023-04-27T10:55:38.394Z,5.35
2023-04-27T10:58:01.476Z,4.80
2023-04-27T11:00:44.294Z,4.35
2023-04-27T11:03:17.097Z,3.65
2023-04-27T11:05:38.780Z,4.55
2023-04-27T11:08:21.023Z,4.15
2023-04-27T11:10:50.135Z,4.20
2023-04-27T11:13:25.698Z,4.45
2023-04-27T11:15:49.449Z,4.53
2023-04-27T11:18:10.999Z,4.82
2023-04-27T11:20:32.506Z,4.45
2023-04-27T11:22:54.084Z,4.60
2023-04-27T11:25:15.675Z,5.07
2023-04-27T11:27:41.213Z,4.65
2023-04-27T11:30:02.740Z,5.00
2023-04-27T11:32:25.806Z,4.22
2023-04-27T11:34:53.462Z,4.20
2023-04-27T11:37:22.804Z,4.40
2023-04-27T11:39:45.868Z,4.40
2023-04-27T11:42:31.610Z,4.60
2023-04-27T11:44:58.516Z,4.40
2023-04-27T11:47:21.335Z,3.90
2023-04-27T11:49:47.169Z,4.50
2023-04-27T11:52:08.720Z,3.85
2023-04-27T11:54:30.165Z,4.57
2023-04-27T11:56:51.602Z,5.00
2023-04-27T11:59:26.398Z,4.85
2023-04-27T12:01:47.921Z,4.68
2023-04-27T12:04:09.598Z,4.38
2023-04-27T12:06:33.169Z,4.47
2023-04-27T12:08:58.294Z,4.80
2023-04-27T12:11:19.891Z,4.97
2023-04-27T12:13:41.318Z,4.55
2023-04-27T12:16:02.771Z,4.45
2023-04-27T12:18:24.195Z,4.57
2023-04-27T12:20:46.111Z,4.75
2023-04-27T12:23:07.572Z,4.38
2023-04-27T12:25:29.211Z,4.28
2023-04-27T12:27:51.061Z,4.55
2023-04-27T12:30:13.563Z,4.38
2023-04-27T12:32:35.072Z,4.18
2023-04-27T12:34:56.614Z,4.20
2023-04-27T12:37:18.044Z,4.35
2023-04-27T12:39:39.498Z,4.28
2023-04-27T12:42:01.866Z,4.95
2023-04-27T12:44:23.395Z,4.18
2023-04-27T12:46:46.402Z,4.35
2023-04-27T12:49:09.376Z,4.00
2023-04-27T12:51:30.863Z,4.07
2023-04-27T12:53:52.463Z,4.30
2023-04-27T12:56:13.939Z,4.18
2023-04-27T12:58:35.359Z,4.70
2023-04-27T13:01:00.255Z,4.40
2023-04-27T13:03:21.813Z,3.80
2023-04-27T13:05:44.501Z,3.95
2023-04-27T13:08:05.948Z,3.90
2023-04-27T13:10:33.670Z,3.95
2023-04-27T13:12:55.499Z,4.30
2023-04-27T13:15:17.074Z,4.05
2023-04-27T13:17:38.615Z,3.90
2023-04-27T13:20:00.231Z,4.70
2023-04-27T13:22:21.704Z,4.53
2023-04-27T13:24:43.180Z,4.65
2023-04-27T13:27:05.137Z,4.05
2023-04-27T13:29:26.731Z,4.85
2023-04-27T13:31:48.212Z,4.65
2023-04-27T13:34:09.689Z,3.97
2023-04-27T13:36:31.236Z,4.25
2023-04-27T13:38:52.775Z,4.40
2023-04-27T13:41:14.245Z,3.92
2023-04-27T13:43:35.800Z,4.05
2023-04-27T13:46:01.621Z,4.22
2023-04-27T13:48:23.627Z,3.80
2023-04-27T13:50:45.268Z,3.50
2023-04-27T13:53:06.992Z,4.38
2023-04-27T13:55:28.769Z,3.97
2023-04-27T13:57:50.221Z,3.97
2023-04-27T14:00:12.813Z,3.72
2023-04-27T14:02:34.533Z,4.18
2023-04-27T14:04:56.819Z,3.80
2023-04-27T14:07:19.634Z,3.97
2023-04-27T14:09:41.963Z,4.10
2023-04-27T14:12:03.631Z,3.65
2023-04-27T14:14:25.096Z,3.90
2023-04-27T14:16:46.942Z,4.05
2023-04-27T14:19:08.938Z,4.07
2023-04-27T14:21:30.372Z,3.88
2023-04-27T14:23:51.806Z,4.50
2023-04-27T14:26:13.485Z,3.90
2023-04-27T14:28:34.933Z,4.30
2023-04-27T14:30:56.401Z,3.92
2023-04-27T14:33:17.941Z,3.63
2023-04-27T14:35:39.552Z,4.05
2023-04-27T14:38:04.306Z,4.43
2023-04-27T14:40:25.774Z,4.05
2023-04-27T14:42:47.295Z,4.30
2023-04-27T14:45:09.312Z,5.80
2023-04-27T14:47:31.085Z,6.60
2023-04-27T14:49:52.571Z,3.67
2023-04-27T14:52:14.073Z,5.43
2023-04-27T14:54:38.035Z,6.22
2023-04-27T14:57:01.067Z,4.15
2023-04-27T14:59:23.171Z,4.32
2023-04-27T15:01:44.676Z,3.83
2023-04-27T15:04:06.424Z,6.28
2023-04-27T15:06:28.726Z,4.00
2023-04-27T15:08:50.203Z,3.83
2023-04-27T15:11:11.715Z,3.95
2023-04-27T15:13:33.158Z,3.78
2023-04-27T15:15:58.648Z,4.30
2023-04-27T15:18:20.188Z,4.95
2023-04-27T15:20:43.117Z,4.38
2023-04-27T15:23:05.685Z,5.65
2023-04-27T15:25:27.170Z,7.63
2023-04-27T15:27:49.605Z,7.70
2023-04-27T15:30:11.616Z,7.60
2023-04-27T15:32:33.464Z,6.60
2023-04-27T15:34:55.163Z,13.35
2023-04-27T15:37:16.575Z,5.82
2023-04-27T15:39:38.113Z,4.32
2023-04-27T15:41:59.858Z,3.85
2023-04-27T15:44:21.451Z,3.75
2023-04-27T15:46:42.928Z,3.50
2023-04-27T15:49:04.590Z,3.85
2023-04-27T15:51:26.785Z,3.55
2023-04-27T15:53:48.248Z,3.20
2023-04-27T15:56:09.706Z,4.15
2023-04-27T15:58:31.185Z,3.90
2023-04-27T16:00:52.750Z,3.90
2023-04-27T16:03:14.563Z,3.42
2023-04-27T16:05:36.650Z,3.78
2023-04-27T16:07:58.361Z,3.70
2023-04-27T16:10:19.783Z,3.60
2023-04-27T16:12:41.397Z,3.88
2023-04-27T16:15:03.026Z,3.92
2023-04-27T16:17:25.388Z,3.30
2023-04-27T16:19:46.886Z,3.30
2023-04-27T16:22:08.355Z,3.67
2023-04-27T16:24:31.210Z,3.50
2023-04-27T16:26:52.779Z,3.60
2023-04-27T16:29:14.481Z,3.63
2023-04-27T16:31:36.138Z,4.45
2023-04-27T16:33:57.665Z,3.63
2023-04-27T16:36:19.130Z,5.68
2023-04-27T16:38:40.991Z,5.70
2023-04-27T16:41:02.500Z,6.85
2023-04-27T16:43:24.597Z,4.28
2023-04-27T16:45:46.452Z,3.90
2023-04-27T16:48:10.307Z,4.43
2023-04-27T16:50:32.263Z,4.18
2023-04-27T16:52:53.708Z,3.30
2023-04-27T16:55:15.221Z,3.80
2023-04-27T16:57:37.083Z,3.60
2023-04-27T16:59:58.518Z,3.55
2023-04-27T17:02:24.969Z,3.40
2023-04-27T17:04:47.109Z,3.20
2023-04-27T17:07:09.205Z,3.15
2023-04-27T17:09:31.114Z,3.60
2023-04-27T17:11:52.569Z,4.40
2023-04-27T17:14:14.356Z,3.40
2023-04-27T17:16:35.828Z,4.20
2023-04-27T17:18:57.573Z,4.38
2023-04-27T17:21:21.543Z,4.60
2023-04-27T17:23:43.009Z,4.35
2023-04-27T17:26:04.696Z,3.90
2023-04-27T17:28:26.377Z,3.70
2023-04-27T17:30:47.917Z,3.92
2023-04-27T17:33:10.103Z,3.97
2023-04-27T17:35:31.815Z,3.53
2023-04-27T17:37:53.297Z,3.72
2023-04-27T17:40:19.211Z,3.60
2023-04-27T17:42:40.683Z,3.60
2023-04-27T17:45:02.151Z,3.58
2023-04-27T17:47:25.432Z,3.47
2023-04-27T17:49:46.934Z,3.60
2023-04-27T17:52:08.431Z,3.72
2023-04-27T17:54:30.286Z,3.33
2023-04-27T17:56:51.812Z,3.92
2023-04-27T17:59:13.540Z,4.53
2023-04-27T18:01:35.412Z,3.55
2023-04-27T18:03:56.955Z,3.47
2023-04-27T18:06:21.531Z,3.35
2023-04-27T18:08:42.954Z,3.15
2023-04-27T18:11:04.550Z,3.10
2023-04-27T18:13:27.154Z,5.60
2023-04-27T18:15:48.601Z,5.95
2023-04-27T18:18:11.268Z,6.50
2023-04-27T18:20:32.732Z,6.03
2023-04-27T18:22:54.199Z,24.30
2023-04-27T18:25:15.780Z,9.32
2023-04-27T18:27:37.843Z,5.47
2023-04-27T18:29:59.416Z,5.30
2023-04-27T18:32:22.002Z,5.73
2023-04-27T18:34:43.640Z,5.10
2023-04-27T18:37:05.082Z,5.50
2023-04-27T18:39:26.618Z,5.00
2023-04-27T18:41:48.291Z,4.87
2023-04-27T18:44:09.720Z,4.77
2023-04-27T18:46:32.056Z,5.13
2023-04-27T18:48:53.534Z,5.93
2023-04-27T18:51:14.996Z,5.20
2023-04-27T18:53:36.738Z,5.40
2023-04-27T18:55:58.269Z,5.53
2023-04-27T18:58:19.746Z,4.90
2023-04-27T19:00:41.206Z,5.90
2023-04-27T19:03:02.792Z,5.47
2023-04-27T19:05:24.587Z,5.13
2023-04-27T19:07:46.194Z,5.43
2023-04-27T19:10:08.277Z,5.13
2023-04-27T19:12:30.044Z,5.50
2023-04-27T19:14:51.849Z,5.83
2023-04-27T19:17:13.474Z,5.73
2023-04-27T19:19:34.981Z,5.50
2023-04-27T19:21:58.307Z,5.43
2023-04-27T19:24:19.785Z,5.33
2023-04-27T19:26:41.409Z,5.73
2023-04-27T19:29:03.468Z,5.50
2023-04-27T19:31:25.033Z,5.10
2023-04-27T19:33:47.155Z,5.63
2023-04-27T19:36:08.877Z,5.23
2023-04-27T19:38:30.895Z,6.10
2023-04-27T19:40:52.415Z,5.63
2023-04-27T19:43:14.045Z,6.00
2023-04-27T19:45:35.529Z,6.03
2023-04-27T19:47:57.025Z,5.80
2023-04-27T19:50:18.576Z,5.97
2023-04-27T19:52:40.097Z,6.30
2023-04-27T19:55:01.600Z,6.03
2023-04-27T19:57:23.203Z,6.90
2023-04-27T19:59:44.637Z,6.60
2023-04-27T20:02:06.801Z,6.33
2023-04-27T20:04:28.996Z,6.10
2023-04-27T20:06:50.619Z,5.80
2023-04-27T20:09:12.087Z,6.20
2023-04-27T20:11:33.549Z,6.03
2023-04-27T20:13:55.048Z,6.60
2023-04-27T20:16:18.327Z,6.53
2023-04-27T20:18:39.764Z,6.23
2023-04-27T20:21:01.187Z,6.53
2023-04-27T20:23:22.688Z,6.20
2023-04-27T20:25:44.100Z,7.07
2023-04-27T20:28:05.545Z,6.20
2023-04-27T20:30:27.893Z,5.93
2023-04-27T20:32:49.329Z,6.57
2023-04-27T20:35:11.397Z,7.17
2023-04-27T20:37:33.128Z,7.37
2023-04-27T20:39:54.605Z,6.80
2023-04-27T20:42:16.152Z,6.90
2023-04-27T20:44:39.072Z,6.70
2023-04-27T20:47:00.640Z,7.17
2023-04-27T20:49:31.734Z,10.10
2023-04-27T20:51:55.717Z,7.70
2023-04-27T20:54:17.180Z,7.20
2023-04-27T20:56:38.651Z,6.30
2023-04-27T20:59:00.149Z,6.30
2023-04-27T21:01:21.729Z,6.60
2023-04-27T21:03:43.572Z,6.73
2023-04-27T21:06:05.520Z,5.83
2023-04-27T21:08:28.139Z,6.27
2023-04-27T21:10:49.614Z,7.00
2023-04-27T21:13:11.228Z,6.97
2023-04-27T21:15:33.499Z,7.47
2023-04-27T21:17:55.002Z,7.17
2023-04-27T21:20:17.141Z,6.33
2023-04-27T21:22:38.649Z,6.50
2023-04-27T21:25:00.287Z,6.40
2023-04-27T21:27:22.247Z,6.93
2023-04-27T21:29:43.760Z,6.60
2023-04-27T21:32:05.426Z,6.53
2023-04-27T21:34:27.637Z,6.37
2023-04-27T21:36:49.085Z,6.30
2023-04-27T21:39:10.580Z,7.20
2023-04-27T21:41:34.448Z,9.20
2023-04-27T21:43:55.922Z,9.47
2023-04-27T21:46:17.379Z,7.60
2023-04-27T21:48:38.991Z,8.00
2023-04-27T21:51:00.713Z,7.07
2023-04-27T21:53:23.101Z,7.07
2023-04-27T21:55:44.556Z,7.63
2023-04-27T21:58:06.008Z,6.77
2023-04-27T22:00:27.589Z,7.03
2023-04-27T22:02:49.582Z,7.07
2023-04-27T22:05:11.251Z,6.77
2023-04-27T22:07:32.711Z,6.30
2023-04-27T22:09:54.177Z,7.00
2023-04-27T22:12:15.624Z,6.57
2023-04-27T22:14:37.564Z,7.90
2023-04-27T22:17:00.819Z,8.90
2023-04-27T22:19:22.851Z,7.10
2023-04-27T22:21:44.916Z,7.07
2023-04-27T22:24:06.554Z,7.30
2023-04-27T22:26:28.001Z,6.83
2023-04-27T22:28:49.467Z,7.10
2023-04-27T22:31:10.956Z,7.40
2023-04-27T22:33:32.499Z,7.10
2023-04-27T22:35:53.942Z,6.93
2023-04-27T22:38:15.601Z,6.80
2023-04-27T22:40:37.105Z,7.23
2023-04-27T22:42:58.638Z,6.73
2023-04-27T22:45:20.055Z,6.67
2023-04-27T22:47:41.632Z,6.90
2023-04-27T22:50:03.399Z,6.30
2023-04-27T22:52:24.984Z,6.60
2023-04-27T22:54:46.404Z,6.80
2023-04-27T22:57:07.922Z,7.00
2023-04-27T22:59:29.421Z,6.17
2023-04-27T23:01:51.693Z,6.37
2023-04-27T23:04:14.068Z,6.80
2023-04-27T23:06:36.301Z,6.97
2023-04-27T23:08:57.752Z,6.80
2023-04-27T23:11:19.150Z,6.90
2023-04-27T23:13:40.699Z,6.63
2023-04-27T23:16:02.155Z,6.60
2023-04-27T23:18:23.593Z,6.80
2023-04-27T23:20:45.007Z,6.67
2023-04-27T23:23:06.454Z,6.80
2023-04-27T23:25:27.914Z,6.53
2023-04-27T23:27:51.705Z,7.10
2023-04-27T23:30:13.942Z,6.90
2023-04-27T23:32:36.700Z,6.77
2023-04-27T23:34:58.199Z,6.73
2023-04-27T23:37:19.652Z,6.80
2023-04-27T23:39:41.293Z,6.83
2023-04-27T23:42:03.566Z,6.63
2023-04-27T23:44:25.007Z,6.30
2023-04-27T23:46:46.609Z,6.87
2023-04-27T23:49:08.050Z,6.60
2023-04-27T23:51:29.576Z,7.43
2023-04-27T23:53:51.064Z,6.87
2023-04-27T23:56:19.232Z,7.10
2023-04-27T23:58:40.708Z,6.70
